Time;durP1;ratioP1;P1;durP2;ratioP2;P2;SDS_P1;SDS_P2;PMS_P1;PMS_P2;Temp;Humidity;BMP_temperature;BMP_pressure;BME280_temperature;BME280_humidity;BME280_pressure;Samples;Min_cycle;Max_cycle;Signal;HPM_P1;HPM_P2
2021/10/19 00:00:56;;;;;;;1.98;0.75;;;23.80;54.90;;;;;;5050426;28;20055;-51
2021/10/19 00:03:23;;;;;;;1.70;1.02;;;23.80;54.90;;;;;;5049445;28;20037;-53
2021/10/19 00:05:50;;;;;;;0.93;0.88;;;23.80;54.90;;;;;;5048001;28;20037;-56
2021/10/19 00:08:17;;;;;;;1.27;1.20;;;23.80;54.90;;;;;;5048035;28;20037;-57
2021/10/19 00:10:44;;;;;;;0.73;0.73;;;23.80;54.90;;;;;;5049742;28;20503;-57
2021/10/19 00:13:13;;;;;;;1.25;0.75;;;23.80;54.90;;;;;;5049520;28;20068;-56
2021/10/19 00:15:40;;;;;;;0.60;0.60;;;23.80;54.90;;;;;;5055762;28;20064;-62
2021/10/19 00:18:07;;;;;;;0.80;0.77;;;23.80;54.90;;;;;;5036050;28;20044;-61
2021/10/19 00:20:34;;;;;;;2.47;1.40;;;23.80;54.90;;;;;;5052146;28;20045;-55
2021/10/19 00:23:01;;;;;;;1.08;0.98;;;23.80;55.00;;;;;;5049179;28;20041;-50
2021/10/19 00:25:28;;;;;;;0.70;0.70;;;23.80;55.00;;;;;;5053113;28;20041;-48
2021/10/19 00:27:55;;;;;;;0.98;0.63;;;23.80;55.00;;;;;;5048176;28;20119;-48
2021/10/19 00:30:23;;;;;;;1.20;0.57;;;23.80;55.00;;;;;;5052954;28;20129;-61
2021/10/19 00:32:51;;;;;;;2.40;0.98;;;23.80;55.00;;;;;;5046182;28;20421;-60
2021/10/19 00:35:18;;;;;;;0.80;0.63;;;23.80;55.00;;;;;;5048648;28;20052;-61
2021/10/19 00:37:45;;;;;;;0.50;0.45;;;23.80;55.00;;;;;;5049035;28;20033;-60
2021/10/19 00:40:12;;;;;;;1.42;1.08;;;23.80;55.00;;;;;;5049483;28;20044;-58
2021/10/19 00:42:39;;;;;;;1.65;0.73;;;23.80;55.00;;;;;;5052965;28;20617;-60
2021/10/19 00:45:08;;;;;;;2.65;0.70;;;23.80;55.00;;;;;;5048621;28;20041;-55
2021/10/19 00:47:46;;;;;;;0.90;0.40;;;23.80;54.90;;;;;;5046369;28;20056;-58
2021/10/19 00:50:13;;;;;;;0.77;0.77;;;23.90;55.00;;;;;;5051216;28;20045;-54
2021/10/19 00:52:41;;;;;;;1.52;0.82;;;23.80;55.00;;;;;;5048520;28;20059;-59
2021/10/19 00:55:10;;;;;;;1.20;0.50;;;23.90;55.00;;;;;;5049563;28;20781;-56
2021/10/19 00:57:37;;;;;;;0.50;0.50;;;23.80;54.90;;;;;;5052452;28;20041;-62
2021/10/19 01:00:06;;;;;;;0.73;0.60;;;23.80;55.00;;;;;;5048225;28;20135;-60
2021/10/19 01:02:34;;;;;;;0.50;0.50;;;23.90;55.00;;;;;;5045034;28;20524;-58
2021/10/19 01:05:03;;;;;;;0.98;0.50;;;23.80;55.00;;;;;;5048041;28;20110;-59
2021/10/19 01:07:30;;;;;;;0.98;0.40;;;23.80;55.00;;;;;;5050762;28;20041;-58
2021/10/19 01:09:57;;;;;;;1.08;0.77;;;23.80;54.90;;;;;;5049259;28;20036;-48
2021/10/19 01:12:25;;;;;;;2.55;0.60;;;23.80;55.00;;;;;;5051941;28;20123;-49
2021/10/19 01:14:52;;;;;;;0.93;0.50;;;23.80;55.10;;;;;;5052833;28;20064;-51
2021/10/19 01:17:19;;;;;;;0.40;0.40;;;23.80;55.10;;;;;;5047299;28;20610;-53
2021/10/19 01:19:50;;;;;;;0.80;0.80;;;23.90;55.20;;;;;;5047759;28;20037;-48
2021/10/19 01:22:17;;;;;;;0.63;0.40;;;23.90;55.20;;;;;;5043405;28;20496;-49
2021/10/19 01:24:44;;;;;;;0.52;0.45;;;23.80;55.10;;;;;;5052369;28;20783;-54
2021/10/19 01:27:12;;;;;;;0.52;0.52;;;23.90;55.20;;;;;;5049228;28;20048;-58
2021/10/19 01:29:39;;;;;;;0.50;0.45;;;23.90;55.20;;;;;;5047638;28;20041;-61
2021/10/19 01:32:08;;;;;;;0.77;0.77;;;23.90;55.10;;;;;;5050057;28;20051;-57
2021/10/19 01:34:36;;;;;;;0.43;0.38;;;23.90;55.10;;;;;;5047918;28;20084;-56
2021/10/19 01:37:05;;;;;;;0.93;0.55;;;23.90;55.10;;;;;;5048095;28;20509;-60
2021/10/19 01:39:32;;;;;;;1.75;0.57;;;23.90;55.10;;;;;;5047996;28;20052;-60
2021/10/19 01:41:59;;;;;;;1.42;0.43;;;23.80;55.00;;;;;;5049609;28;20705;-60
2021/10/19 01:44:26;;;;;;;0.40;0.40;;;23.90;55.00;;;;;;5046252;28;20045;-57
2021/10/19 01:46:53;;;;;;;1.00;0.50;;;23.90;55.00;;;;;;5045010;28;20033;-58
2021/10/19 01:49:20;;;;;;;1.05;0.52;;;23.90;55.00;;;;;;5048158;28;20056;-58
2021/10/19 01:51:47;;;;;;;0.32;0.32;;;23.90;55.00;;;;;;5046454;28;20043;-55
2021/10/19 01:54:16;;;;;;;0.80;0.80;;;23.90;55.00;;;;;;5051386;28;20124;-56
2021/10/19 01:56:43;;;;;;;1.95;0.40;;;23.90;55.00;;;;;;5052188;28;20067;-56
2021/10/19 01:59:10;;;;;;;0.30;0.30;;;23.90;55.00;;;;;;5046583;28;20521;-58
2021/10/19 02:01:39;;;;;;;1.50;0.40;;;23.90;54.90;;;;;;5046835;28;20041;-58
2021/10/19 02:04:06;;;;;;;1.30;0.50;;;23.90;54.90;;;;;;5051287;28;20045;-62
2021/10/19 02:06:33;;;;;;;0.50;0.50;;;23.90;54.90;;;;;;5051836;28;20360;-58
2021/10/19 02:09:00;;;;;;;0.40;0.40;;;23.90;54.90;;;;;;5047207;28;20045;-59
2021/10/19 02:11:28;;;;;;;0.50;0.50;;;23.90;54.90;;;;;;5047020;28;20043;-58
2021/10/19 02:13:55;;;;;;;0.60;0.43;;;23.90;54.90;;;;;;5048652;28;20048;-59
2021/10/19 02:16:22;;;;;;;1.42;0.95;;;23.90;54.90;;;;;;5047000;28;20049;-49
2021/10/19 02:18:49;;;;;;;2.95;0.68;;;23.90;54.90;;;;;;5045728;28;20045;-49
2021/10/19 02:21:16;;;;;;;1.55;0.50;;;23.90;54.90;;;;;;5045966;28;20041;-46
2021/10/19 02:23:43;;;;;;;7.60;0.50;;;23.90;54.70;;;;;;5046029;28;20041;-47
2021/10/19 02:26:10;;;;;;;0.85;0.40;;;24.00;54.70;;;;;;5045534;28;20091;-46
2021/10/19 02:28:39;;;;;;;0.52;0.30;;;23.90;54.60;;;;;;5044616;28;20539;-47
2021/10/19 02:31:06;;;;;;;1.65;0.43;;;24.00;54.60;;;;;;5045304;28;20047;-47
2021/10/19 02:33:33;;;;;;;0.45;0.43;;;24.00;54.60;;;;;;5029522;28;20413;-48
2021/10/19 02:36:00;;;;;;;0.57;0.40;;;24.00;54.50;;;;;;5046814;28;20040;-48
2021/10/19 02:38:27;;;;;;;4.80;0.57;;;24.00;54.40;;;;;;5045123;28;20043;-46
2021/10/19 02:40:54;;;;;;;5.30;0.50;;;23.90;54.40;;;;;;5045280;28;20047;-48
2021/10/19 02:43:21;;;;;;;1.25;0.52;;;24.00;54.50;;;;;;5045000;28;20131;-46
2021/10/19 02:45:50;;;;;;;0.73;0.57;;;23.90;54.40;;;;;;5045322;28;20037;-46
2021/10/19 02:48:17;;;;;;;1.35;0.40;;;23.90;54.50;;;;;;5046988;28;20033;-47
2021/10/19 02:50:44;;;;;;;2.80;0.28;;;23.80;54.50;;;;;;5044830;28;20502;-46
2021/10/19 02:53:11;;;;;;;0.50;0.30;;;23.80;54.60;;;;;;5045056;28;20395;-46
2021/10/19 02:55:38;;;;;;;2.28;0.52;;;23.80;54.70;;;;;;5043107;28;20044;-49
2021/10/19 02:58:05;;;;;;;0.50;0.47;;;23.70;54.70;;;;;;5045333;28;20074;-49
2021/10/19 03:00:32;;;;;;;0.52;0.50;;;23.70;54.80;;;;;;5044804;28;20088;-49
2021/10/19 03:03:01;;;;;;;0.63;0.32;;;23.70;54.90;;;;;;5032764;28;20516;-46
2021/10/19 03:05:28;;;;;;;1.05;0.47;;;23.70;55.00;;;;;;5042024;28;20041;-49
2021/10/19 03:07:55;;;;;;;1.65;0.52;;;23.70;55.00;;;;;;5042750;28;20033;-47
2021/10/19 03:10:22;;;;;;;1.25;0.60;;;23.60;55.00;;;;;;5044219;28;20033;-49
2021/10/19 03:12:49;;;;;;;0.73;0.35;;;23.60;55.10;;;;;;5049598;28;20064;-49
2021/10/19 03:15:19;;;;;;;0.38;0.38;;;23.60;55.20;;;;;;5050962;28;20036;-47
2021/10/19 03:17:46;;;;;;;2.33;0.63;;;23.60;55.30;;;;;;5048410;28;20053;-47
2021/10/19 03:20:15;;;;;;;4.57;0.40;;;23.50;55.20;;;;;;5048175;28;20037;-49
2021/10/19 03:22:42;;;;;;;2.78;0.68;;;23.60;55.30;;;;;;5048953;28;20051;-47
2021/10/19 03:25:10;;;;;;;0.40;0.40;;;23.50;55.20;;;;;;5049081;28;20045;-49
2021/10/19 03:27:37;;;;;;;1.75;0.40;;;23.50;55.20;;;;;;5049682;28;20150;-52
2021/10/19 03:30:04;;;;;;;0.98;0.35;;;23.50;55.20;;;;;;5049058;28;20492;-49
2021/10/19 03:32:31;;;;;;;2.78;0.75;;;23.50;55.30;;;;;;5049255;28;20529;-49
2021/10/19 03:34:59;;;;;;;1.75;0.30;;;23.50;55.30;;;;;;5049031;28;20052;-49
2021/10/19 03:37:27;;;;;;;1.95;0.40;;;23.50;55.30;;;;;;5048913;28;20128;-48
2021/10/19 03:39:54;;;;;;;0.93;0.25;;;23.50;55.40;;;;;;5048491;28;20041;-46
2021/10/19 03:42:21;;;;;;;0.77;0.40;;;23.40;55.30;;;;;;5050595;28;20045;-48
2021/10/19 03:44:48;;;;;;;0.70;0.60;;;23.50;55.40;;;;;;5048592;28;20052;-48
2021/10/19 03:47:15;;;;;;;0.30;0.25;;;23.50;55.40;;;;;;5048444;28;20049;-49
2021/10/19 03:49:42;;;;;;;1.27;0.50;;;23.40;55.40;;;;;;5047505;28;20048;-48
2021/10/19 03:52:09;;;;;;;0.40;0.38;;;23.40;55.40;;;;;;5048593;28;20532;-49
2021/10/19 03:54:37;;;;;;;1.30;0.55;;;23.40;55.40;;;;;;5049112;28;20037;-48
2021/10/19 03:57:07;;;;;;;1.17;0.47;;;23.40;55.50;;;;;;5049034;28;20370;-48
2021/10/19 03:59:34;;;;;;;0.82;0.30;;;23.40;55.50;;;;;;5048052;28;20520;-47
2021/10/19 04:02:01;;;;;;;1.00;0.55;;;23.40;55.50;;;;;;5048230;28;20040;-47
2021/10/19 04:04:29;;;;;;;0.50;0.30;;;23.40;55.50;;;;;;5048593;28;20033;-48
2021/10/19 04:06:56;;;;;;;0.52;0.35;;;23.40;55.60;;;;;;5047037;28;20684;-48
2021/10/19 04:09:23;;;;;;;2.97;0.38;;;23.40;55.60;;;;;;5048902;28;20067;-48
2021/10/19 04:11:51;;;;;;;1.48;0.60;;;23.40;55.60;;;;;;5047078;28;20056;-48
2021/10/19 04:14:18;;;;;;;1.00;0.30;;;23.30;55.60;;;;;;5048054;28;20049;-48
2021/10/19 04:16:45;;;;;;;2.08;1.40;;;23.30;55.60;;;;;;5046259;28;20114;-46
2021/10/19 04:19:12;;;;;;;1.33;0.25;;;23.30;55.60;;;;;;5042844;28;20048;-45
2021/10/19 04:21:41;;;;;;;0.73;0.40;;;23.30;55.60;;;;;;5044814;28;20041;-46
2021/10/19 04:24:08;;;;;;;0.70;0.70;;;23.30;55.70;;;;;;5048825;28;20040;-47
2021/10/19 04:26:35;;;;;;;4.00;0.55;;;23.30;55.70;;;;;;5047829;28;20052;-47
2021/10/19 04:29:04;;;;;;;1.33;0.47;;;23.30;55.70;;;;;;5050833;28;20040;-47
2021/10/19 04:31:31;;;;;;;0.68;0.20;;;23.30;55.70;;;;;;5048036;28;20037;-47
2021/10/19 04:33:59;;;;;;;3.40;0.50;;;23.30;55.80;;;;;;5047895;28;20072;-47
2021/10/19 04:36:26;;;;;;;1.73;0.68;;;23.30;55.80;;;;;;5054649;28;20052;-47
2021/10/19 04:38:53;;;;;;;2.10;0.45;;;23.30;55.80;;;;;;5039995;28;20044;-46
2021/10/19 04:41:21;;;;;;;0.50;0.32;;;23.30;55.80;;;;;;5045703;28;20067;-45
2021/10/19 04:43:48;;;;;;;1.45;0.82;;;23.30;55.90;;;;;;5047638;28;20051;-46
2021/10/19 04:46:17;;;;;;;2.95;0.50;;;23.30;55.90;;;;;;5046851;28;20129;-47
2021/10/19 04:48:44;;;;;;;0.30;0.30;;;23.30;55.90;;;;;;5047836;28;20072;-48
2021/10/19 04:51:11;;;;;;;2.17;0.65;;;23.30;55.90;;;;;;5047149;28;20406;-46
2021/10/19 04:53:38;;;;;;;0.63;0.40;;;23.30;56.00;;;;;;5045887;28;20037;-46
2021/10/19 04:56:06;;;;;;;0.95;0.50;;;23.30;56.00;;;;;;5047212;28;20041;-47
2021/10/19 04:58:33;;;;;;;0.40;0.40;;;23.30;56.00;;;;;;5050892;28;20045;-47
2021/10/19 05:01:00;;;;;;;0.20;0.20;;;23.30;56.00;;;;;;5041960;28;20063;-47
2021/10/19 05:03:28;;;;;;;1.15;0.30;;;23.30;56.00;;;;;;5044464;28;20041;-47
2021/10/19 05:05:56;;;;;;;1.05;0.40;;;23.30;56.10;;;;;;5047212;28;20122;-48
2021/10/19 05:08:23;;;;;;;0.40;0.25;;;23.30;56.10;;;;;;5046724;28;20077;-46
2021/10/19 05:10:50;;;;;;;0.90;0.40;;;23.30;56.10;;;;;;5047140;28;20123;-49
2021/10/19 05:13:17;;;;;;;1.38;0.65;;;23.30;56.10;;;;;;5047169;28;20045;-46
2021/10/19 05:15:44;;;;;;;1.85;0.30;;;23.30;56.10;;;;;;5047326;28;20037;-46
2021/10/19 05:18:12;;;;;;;2.00;0.32;;;23.30;56.20;;;;;;5046378;28;20151;-50
2021/10/19 05:20:40;;;;;;;1.08;0.40;;;23.30;56.20;;;;;;5041815;28;20052;-48
2021/10/19 05:23:07;;;;;;;0.63;0.63;;;23.30;56.20;;;;;;5044984;28;20111;-47
2021/10/19 05:25:34;;;;;;;0.70;0.40;;;23.30;56.20;;;;;;5046823;28;20044;-47
2021/10/19 05:28:01;;;;;;;2.78;0.40;;;23.30;56.30;;;;;;5046714;28;20060;-50
2021/10/19 05:30:28;;;;;;;2.20;0.20;;;23.30;56.30;;;;;;5048106;28;20048;-47
2021/10/19 05:32:55;;;;;;;3.22;0.63;;;23.30;56.30;;;;;;5046335;28;20049;-48
2021/10/19 05:35:22;;;;;;;1.85;0.30;;;23.30;56.40;;;;;;5045658;28;20041;-47
2021/10/19 05:37:51;;;;;;;0.77;0.73;;;23.30;57.00;;;;;;5043208;28;20053;-59
2021/10/19 05:40:18;;;;;;;0.32;0.30;;;23.30;56.60;;;;;;5045735;28;20040;-60
2021/10/19 05:42:45;;;;;;;1.63;0.47;;;23.30;56.90;;;;;;5051756;28;20497;-62
2021/10/19 05:45:12;;;;;;;0.40;0.30;;;23.30;57.00;;;;;;5049119;28;20064;-60
2021/10/19 05:47:41;;;;;;;5.75;0.45;;;23.30;57.10;;;;;;5047418;28;20067;-54
2021/10/19 05:50:08;;;;;;;1.20;0.45;;;23.40;57.10;;;;;;5042380;28;20081;-48
2021/10/19 05:52:35;;;;;;;1.55;0.20;;;23.50;57.10;;;;;;5049196;28;20127;-51
2021/10/19 05:55:04;;;;;;;0.40;0.20;;;23.50;57.00;;;;;;5045382;28;20048;-68
2021/10/19 05:57:31;;;;;;;1.15;0.52;;;23.60;56.80;;;;;;5042098;28;20136;-55
2021/10/19 05:59:58;;;;;;;3.53;0.50;;;23.70;56.60;;;;;;5046856;28;20106;-56
2021/10/19 06:02:25;;;;;;;0.68;0.60;;;23.80;56.40;;;;;;5049650;28;20045;-54
2021/10/19 06:04:52;;;;;;;0.40;0.40;;;23.90;56.30;;;;;;5046220;28;20102;-52
2021/10/19 06:07:19;;;;;;;5.18;0.52;;;24.00;56.20;;;;;;5039612;28;20048;-55
2021/10/19 06:09:47;;;;;;;2.42;0.80;;;24.10;56.00;;;;;;5045317;28;20044;-54
2021/10/19 06:12:16;;;;;;;1.75;0.63;;;24.10;55.80;;;;;;5047442;28;20472;-56
2021/10/19 06:14:43;;;;;;;1.65;0.38;;;24.20;55.60;;;;;;5049847;28;20527;-56
2021/10/19 06:17:11;;;;;;;1.17;0.25;;;24.30;55.50;;;;;;5048051;28;20072;-54
2021/10/19 06:19:38;;;;;;;0.85;0.32;;;24.40;55.40;;;;;;5042175;28;20048;-56
2021/10/19 06:22:05;;;;;;;0.43;0.43;;;24.40;55.20;;;;;;5048387;28;20494;-53
2021/10/19 06:24:32;;;;;;;0.65;0.45;;;24.50;55.20;;;;;;5050721;28;20040;-55
2021/10/19 06:26:59;;;;;;;1.38;0.40;;;24.60;55.20;;;;;;5046653;28;20045;-59
2021/10/19 06:29:29;;;;;;;0.82;0.82;;;24.60;55.00;;;;;;5045364;28;20045;-57
2021/10/19 06:31:57;;;;;;;2.28;0.90;;;24.70;54.90;;;;;;5046880;28;20041;-51
2021/10/19 06:34:24;;;;;;;0.73;0.30;;;24.70;54.70;;;;;;5049673;28;20064;-54
2021/10/19 06:36:51;;;;;;;1.00;0.57;;;24.80;55.20;;;;;;5048216;28;20048;-53
2021/10/19 06:39:18;;;;;;;2.45;0.88;;;24.90;54.40;;;;;;5050287;28;20057;-54
2021/10/19 06:41:45;;;;;;;1.83;0.95;;;24.90;54.30;;;;;;5045179;28;20418;-52
2021/10/19 06:44:12;;;;;;;1.52;0.70;;;25.00;54.10;;;;;;5046721;28;20043;-54
2021/10/19 06:46:41;;;;;;;0.73;0.70;;;25.10;54.00;;;;;;5043609;28;20888;-54
2021/10/19 06:49:08;;;;;;;0.68;0.55;;;25.20;53.90;;;;;;5047073;28;20123;-55
2021/10/19 06:51:36;;;;;;;1.65;0.30;;;25.20;53.70;;;;;;5051718;28;20048;-53
2021/10/19 06:54:03;;;;;;;0.95;0.60;;;25.30;53.60;;;;;;5045670;28;20045;-55
2021/10/19 06:56:30;;;;;;;1.88;0.73;;;25.30;54.10;;;;;;5046899;28;20037;-64
2021/10/19 06:58:57;;;;;;;0.60;0.55;;;25.30;53.30;;;;;;5046078;28;20033;-59
2021/10/19 07:01:24;;;;;;;3.22;0.30;;;25.40;53.20;;;;;;5046239;28;20037;-60
2021/10/19 07:03:52;;;;;;;1.55;0.65;;;25.40;53.10;;;;;;5047223;28;20439;-58
2021/10/19 07:06:20;;;;;;;1.02;0.47;;;25.50;53.00;;;;;;5048381;28;20081;-59
2021/10/19 07:08:48;;;;;;;2.05;0.30;;;25.50;52.80;;;;;;5046635;28;20568;-58
2021/10/19 07:11:15;;;;;;;3.28;0.63;;;25.50;52.70;;;;;;5049712;28;20504;-62
2021/10/19 07:13:43;;;;;;;4.38;0.65;;;25.60;52.70;;;;;;5047240;28;20710;-60
2021/10/19 07:16:10;;;;;;;4.03;0.40;;;25.60;52.60;;;;;;5046975;28;20041;-65
2021/10/19 07:18:37;;;;;;;4.28;0.40;;;25.60;52.50;;;;;;5046508;28;20095;-53
2021/10/19 07:21:05;;;;;;;0.35;0.30;;;25.70;52.40;;;;;;5045379;28;20040;-54
2021/10/19 07:23:34;;;;;;;5.75;0.45;;;25.70;52.20;;;;;;5046437;28;20072;-61
2021/10/19 07:26:01;;;;;;;3.22;0.30;;;25.70;52.00;;;;;;5034868;28;20049;-56
2021/10/19 07:28:28;;;;;;;4.78;1.15;;;25.70;51.90;;;;;;5043285;28;20057;-52
2021/10/19 07:30:56;;;;;;;4.72;0.82;;;25.80;51.90;;;;;;5044957;28;20044;-54
2021/10/19 07:33:23;;;;;;;1.42;0.50;;;25.80;51.80;;;;;;5046892;28;20045;-56
2021/10/19 07:35:50;;;;;;;0.75;0.20;;;25.80;51.60;;;;;;5049485;28;20040;-59
2021/10/19 07:38:18;;;;;;;1.17;0.50;;;25.80;51.50;;;;;;5049254;28;20045;-60
2021/10/19 07:40:46;;;;;;;4.43;0.80;;;25.90;51.40;;;;;;5050856;28;20481;-56
2021/10/19 07:43:13;;;;;;;3.92;0.60;;;25.90;51.30;;;;;;5044218;28;20041;-58
2021/10/19 07:45:40;;;;;;;3.40;0.98;;;26.00;51.10;;;;;;5044561;28;20049;-58
2021/10/19 07:48:07;;;;;;;5.05;2.05;;;26.00;51.00;;;;;;5046550;28;20045;-58
2021/10/19 07:50:34;;;;;;;4.15;1.05;;;26.00;50.90;;;;;;5044851;28;20041;-57
2021/10/19 07:53:01;;;;;;;14.40;1.50;;;26.00;51.00;;;;;;5044603;28;20110;-58
2021/10/19 07:55:33;;;;;;;10.65;1.30;;;26.10;51.70;;;;;;5029959;28;20049;-60
2021/10/19 07:58:00;;;;;;;8.00;1.85;;;26.10;52.10;;;;;;5047908;28;20045;-63
2021/10/19 08:00:29;;;;;;;1.70;0.68;;;26.10;53.00;;;;;;5049183;28;20061;-61
2021/10/19 08:02:58;;;;;;;8.07;1.42;;;26.10;53.20;;;;;;5048741;28;20050;-56
2021/10/19 08:05:26;;;;;;;7.05;1.20;;;26.20;53.50;;;;;;5049616;28;20051;-60
2021/10/19 08:08:05;;;;;;;8.32;1.92;;;26.20;53.60;;;;;;5047742;28;20056;-68
2021/10/19 08:10:35;;;;;;;11.80;0.82;;;26.20;53.50;;;;;;5047042;28;20033;-69
2021/10/19 08:13:02;;;;;;;2.92;1.27;;;26.30;53.40;;;;;;5048383;28;20029;-65
2021/10/19 08:15:30;;;;;;;0.88;0.70;;;26.30;53.40;;;;;;5049187;28;20045;-69
2021/10/19 08:17:57;;;;;;;4.07;1.23;;;26.40;53.40;;;;;;5045754;28;20135;-62
2021/10/19 08:20:25;;;;;;;4.13;1.33;;;26.40;53.30;;;;;;5050886;28;20087;-61
2021/10/19 08:22:52;;;;;;;2.45;0.45;;;26.40;53.20;;;;;;5049721;28;20072;-66
2021/10/19 08:25:20;;;;;;;4.68;1.30;;;26.40;53.20;;;;;;5051389;28;20045;-67
2021/10/19 08:27:49;;;;;;;2.60;0.77;;;26.40;53.10;;;;;;5048506;28;20398;-68
2021/10/19 08:30:18;;;;;;;5.38;0.93;;;26.50;53.10;;;;;;5050340;28;20134;-69
2021/10/19 08:32:46;;;;;;;2.05;0.82;;;26.50;52.90;;;;;;5054038;28;20519;-64
2021/10/19 08:35:14;;;;;;;2.50;0.82;;;26.50;52.90;;;;;;5049250;28;20122;-65
2021/10/19 08:37:42;;;;;;;1.45;0.70;;;26.50;52.80;;;;;;5047818;28;20041;-64
2021/10/19 08:40:11;;;;;;;0.77;0.35;;;26.50;52.60;;;;;;5053391;28;20063;-63
2021/10/19 08:42:44;;;;;;;2.42;1.00;;;26.50;52.50;;;;;;5047906;28;20678;-63
2021/10/19 08:45:14;;;;;;;2.45;0.73;;;26.50;52.40;;;;;;5048819;28;20037;-62
2021/10/19 08:47:41;;;;;;;2.47;1.00;;;26.50;52.30;;;;;;5047840;28;20118;-68
2021/10/19 08:50:09;;;;;;;2.35;0.82;;;26.50;52.30;;;;;;5047947;28;20126;-62
2021/10/19 08:52:36;;;;;;;3.17;0.93;;;26.60;52.30;;;;;;5045933;28;20041;-60
2021/10/19 08:55:04;;;;;;;3.05;0.47;;;26.60;52.20;;;;;;5047405;28;20051;-61
2021/10/19 08:57:31;;;;;;;3.10;0.75;;;26.60;52.10;;;;;;5047327;28;20063;-62
2021/10/19 08:59:58;;;;;;;3.72;0.93;;;26.60;52.10;;;;;;5045918;28;20140;-52
2021/10/19 09:02:38;;;;;;;3.55;1.10;;;26.60;52.10;;;;;;5051180;28;20491;-53
2021/10/19 09:05:07;;;;;;;5.15;0.75;;;26.60;52.00;;;;;;5052201;28;20045;-54
2021/10/19 09:07:35;;;;;;;3.97;0.70;;;26.60;52.00;;;;;;5040704;28;20059;-58
2021/10/19 09:10:02;;;;;;;6.85;1.05;;;26.60;51.90;;;;;;5046460;28;20121;-54
2021/10/19 09:12:29;;;;;;;2.97;0.88;;;26.60;51.90;;;;;;5047213;28;20123;-49
2021/10/19 09:15:05;;;;;;;2.20;0.70;;;26.60;51.90;;;;;;5053711;28;20032;-49
2021/10/19 09:17:41;;;;;;;1.20;0.50;;;26.70;52.00;;;;;;5044828;28;20045;-57
2021/10/19 09:20:14;;;;;;;4.25;0.90;;;26.70;52.00;;;;;;5046836;28;20039;-49
2021/10/19 09:22:58;;;;;;;1.75;0.82;;;26.70;51.90;;;;;;5048731;28;20365;-52
2021/10/19 09:25:31;;;;;;;4.97;0.68;;;26.70;51.80;;;;;;5048400;28;20219;-50
2021/10/19 09:28:00;;;;;;;1.17;0.95;;;26.70;51.80;;;;;;5046648;28;20044;-51
2021/10/19 09:30:39;;;;;;;3.50;0.77;;;26.70;51.70;;;;;;5046240;28;20044;-48
2021/10/19 09:33:12;;;;;;;4.88;0.77;;;26.70;51.80;;;;;;5049429;28;20060;-52
2021/10/19 09:35:39;;;;;;;2.45;0.68;;;26.70;51.70;;;;;;5048542;28;20045;-50
2021/10/19 09:38:09;;;;;;;5.97;1.02;;;26.70;51.70;;;;;;5046397;28;20052;-49
2021/10/19 09:40:38;;;;;;;4.63;1.00;;;26.70;51.70;;;;;;5045498;28;20095;-49
2021/10/19 09:43:07;;;;;;;3.80;1.02;;;26.70;51.60;;;;;;5051803;28;20065;-52
2021/10/19 09:45:35;;;;;;;2.63;0.70;;;26.80;51.60;;;;;;5050868;28;20045;-53
2021/10/19 09:48:05;;;;;;;2.72;0.82;;;26.80;51.60;;;;;;5046661;28;20051;-52
2021/10/19 09:50:34;;;;;;;3.40;0.75;;;26.80;51.60;;;;;;5045954;28;20043;-52
2021/10/19 09:53:03;;;;;;;5.40;0.80;;;26.80;51.50;;;;;;5047646;28;20032;-50
2021/10/19 09:55:30;;;;;;;3.97;0.73;;;26.80;51.50;;;;;;5028783;28;20053;-48
2021/10/19 09:57:57;;;;;;;2.83;0.60;;;26.80;51.40;;;;;;5045926;28;20052;-50
2021/10/19 10:00:27;;;;;;;1.67;0.50;;;26.80;51.90;;;;;;5048023;28;20045;-53
2021/10/19 10:02:55;;;;;;;6.13;1.38;;;26.90;51.40;;;;;;5045985;28;20054;-49
2021/10/19 10:05:22;;;;;;;0.95;0.73;;;26.90;51.30;;;;;;5045713;28;20049;-51
2021/10/19 10:07:52;;;;;;;0.90;0.45;;;26.90;51.20;;;;;;5052852;28;20427;-48
2021/10/19 10:10:22;;;;;;;6.85;1.05;;;26.90;51.20;;;;;;5045354;28;20045;-49
2021/10/19 10:12:59;;;;;;;1.27;0.73;;;26.90;51.10;;;;;;5046092;28;20072;-49
2021/10/19 10:15:32;;;;;;;5.13;1.02;;;26.90;51.10;;;;;;5046194;28;21066;-45
2021/10/19 10:18:03;;;;;;;1.27;0.60;;;26.90;51.10;;;;;;5046846;28;20135;-54
2021/10/19 10:20:36;;;;;;;3.88;1.00;;;27.00;51.20;;;;;;5045823;28;20618;-48
2021/10/19 10:23:19;;;;;;;2.60;0.70;;;27.00;51.10;;;;;;5047017;28;20041;-67
2021/10/19 10:25:47;;;;;;;2.55;0.90;;;27.00;51.00;;;;;;5043737;28;20087;-65
2021/10/19 10:28:17;;;;;;;2.33;0.77;;;27.00;51.20;;;;;;5052141;28;20047;-68
2021/10/19 10:30:47;;;;;;;1.20;1.02;;;27.00;51.10;;;;;;5052112;28;20095;-64
2021/10/19 10:33:15;;;;;;;4.28;0.50;;;27.00;51.10;;;;;;5042530;28;20068;-54
2021/10/19 10:35:44;;;;;;;1.13;1.02;;;27.00;51.00;;;;;;5049216;28;20060;-54
2021/10/19 10:38:12;;;;;;;0.93;0.55;;;27.10;51.00;;;;;;5047472;28;20045;-55
2021/10/19 10:40:43;;;;;;;1.38;0.45;;;27.10;51.00;;;;;;5045132;28;20584;-51
2021/10/19 10:43:23;;;;;;;0.95;0.95;;;27.10;51.00;;;;;;5041485;28;20138;-53
2021/10/19 10:46:02;;;;;;;2.38;1.52;;;27.10;50.90;;;;;;5051334;28;20122;-62
2021/10/19 10:48:30;;;;;;;4.65;0.93;;;27.20;50.90;;;;;;5049394;28;20052;-69
2021/10/19 10:50:58;;;;;;;1.50;0.55;;;27.10;50.80;;;;;;5047258;28;20041;-51
2021/10/19 10:53:33;;;;;;;2.22;0.38;;;27.20;50.80;;;;;;5046818;28;20045;-54
2021/10/19 10:56:03;;;;;;;1.30;0.52;;;27.20;50.70;;;;;;5045384;28;20594;-57
2021/10/19 10:58:32;;;;;;;1.80;0.43;;;27.20;50.60;;;;;;5048189;28;20041;-52
2021/10/19 11:01:00;;;;;;;0.68;0.68;;;27.20;50.50;;;;;;5045821;28;20584;-64
2021/10/19 11:03:28;;;;;;;1.48;0.57;;;27.30;50.50;;;;;;5043564;28;20123;-64
2021/10/19 11:05:57;;;;;;;2.10;0.32;;;27.30;50.50;;;;;;5045030;28;20437;-61
2021/10/19 11:08:27;;;;;;;0.70;0.57;;;27.30;50.40;;;;;;5041757;28;20044;-60
2021/10/19 11:11:06;;;;;;;2.88;0.40;;;27.30;50.30;;;;;;5030259;28;20045;-57
2021/10/19 11:13:45;;;;;;;0.60;0.57;;;27.40;50.40;;;;;;5045883;28;20095;-57
2021/10/19 11:16:12;;;;;;;0.98;0.73;;;27.40;50.40;;;;;;5041636;28;20052;-58
2021/10/19 11:18:39;;;;;;;1.42;0.73;;;27.40;50.30;;;;;;5045634;28;20068;-58
2021/10/19 11:21:06;;;;;;;4.47;0.40;;;27.40;50.20;;;;;;5046892;28;20049;-53
2021/10/19 11:23:39;;;;;;;0.77;0.60;;;27.40;50.20;;;;;;5045226;28;20036;-54
2021/10/19 11:26:09;;;;;;;0.60;0.52;;;27.40;50.20;;;;;;5045439;28;20401;-65
2021/10/19 11:28:40;;;;;;;1.15;0.40;;;27.40;50.20;;;;;;5045206;28;20116;-61
2021/10/19 11:31:08;;;;;;;1.08;0.40;;;27.50;50.00;;;;;;5045840;28;20044;-60
2021/10/19 11:33:37;;;;;;;0.95;0.52;;;27.50;50.00;;;;;;5049876;28;20043;-58
2021/10/19 11:36:04;;;;;;;1.67;0.73;;;27.50;49.90;;;;;;5049726;28;20134;-52
2021/10/19 11:38:32;;;;;;;0.70;0.40;;;27.50;49.80;;;;;;5047588;28;20048;-49
2021/10/19 11:41:09;;;;;;;1.02;0.50;;;27.50;50.40;;;;;;5049294;28;20129;-49
2021/10/19 11:43:39;;;;;;;1.40;0.60;;;27.60;49.80;;;;;;5031787;28;20041;-48
2021/10/19 11:46:08;;;;;;;1.65;0.30;;;27.60;49.70;;;;;;5048045;28;20049;-57
2021/10/19 11:48:35;;;;;;;2.17;0.57;;;27.50;49.60;;;;;;5049334;28;20528;-67
2021/10/19 11:51:07;;;;;;;2.75;0.90;;;27.60;49.60;;;;;;5050081;28;20064;-54
2021/10/19 11:53:35;;;;;;;0.35;0.32;;;27.60;49.50;;;;;;5046944;28;20033;-53
2021/10/19 11:56:04;;;;;;;0.63;0.63;;;27.60;49.50;;;;;;5039450;28;20405;-53
2021/10/19 11:58:33;;;;;;;2.35;0.63;;;27.60;49.40;;;;;;5046238;28;20053;-61
2021/10/19 12:01:01;;;;;;;1.65;0.20;;;27.60;49.40;;;;;;5053568;28;20045;-49
2021/10/19 12:03:32;;;;;;;0.75;0.40;;;27.60;49.40;;;;;;5051396;28;20122;-50
2021/10/19 12:06:00;;;;;;;1.30;0.55;;;27.70;49.50;;;;;;5035054;28;20041;-52
2021/10/19 12:08:32;;;;;;;0.77;0.47;;;27.70;49.50;;;;;;5049655;28;20037;-55
2021/10/19 12:11:09;;;;;;;2.60;0.45;;;27.70;49.50;;;;;;5051862;28;20037;-55
2021/10/19 12:13:39;;;;;;;1.73;1.17;;;27.70;49.50;;;;;;5049275;28;20070;-55
2021/10/19 12:16:07;;;;;;;1.20;0.52;;;27.70;49.40;;;;;;5053819;28;20052;-53
2021/10/19 12:18:42;;;;;;;2.10;0.32;;;27.70;49.50;;;;;;5037051;28;20657;-55
2021/10/19 12:21:09;;;;;;;;;;;27.80;49.60;;;;;;5049462;28;20127;-54
2021/10/19 12:23:38;;;;;;;0.30;0.25;;;27.70;49.60;;;;;;5047558;28;19920;-53
2021/10/19 12:26:10;;;;;;;0.82;0.50;;;27.70;49.80;;;;;;5031704;28;20572;-55
2021/10/19 12:28:39;;;;;;;2.25;0.40;;;27.70;49.80;;;;;;5044412;28;20068;-51
2021/10/19 12:31:06;;;;;;;2.97;0.75;;;27.80;49.90;;;;;;5047874;28;20077;-52
2021/10/19 12:33:33;;;;;;;3.55;0.95;;;27.80;49.90;;;;;;5048773;28;20136;-52
2021/10/19 12:36:03;;;;;;;0.35;0.20;;;27.80;49.90;;;;;;5048341;28;20098;-52
2021/10/19 12:38:33;;;;;;;0.60;0.30;;;27.90;50.00;;;;;;5046813;28;20051;-53
2021/10/19 12:41:10;;;;;;;1.40;0.40;;;27.90;49.90;;;;;;5051615;28;20148;-53
2021/10/19 12:43:39;;;;;;;0.80;0.45;;;27.90;49.90;;;;;;5050067;28;20041;-52
2021/10/19 12:46:07;;;;;;;1.73;0.47;;;27.90;49.90;;;;;;5051605;28;20048;-50
2021/10/19 12:48:37;;;;;;;2.08;0.40;;;27.90;49.90;;;;;;5048508;28;20060;-53
2021/10/19 12:51:08;;;;;;;1.55;0.50;;;28.00;49.90;;;;;;5048867;28;20440;-49
2021/10/19 12:53:36;;;;;;;1.05;0.25;;;28.00;49.90;;;;;;5045111;28;20135;-51